sensor_id;sensor_type;location;lat;lon;timestamp;P1;durP1;ratioP1;P2;durP2;ratioP2
69636;SDS011;56860;51.144;16.954;2023-12-28T00:00:16;11.9;;;23.0;;
69636;SDS011;56860;51.144;16.954;2023-12-28T00:01:16;11.9;;;23.0;;
69636;SDS011;56860;51.144;16.954;2023-12-28T00:02:16;12.5;;;21.9;;
69636;SDS011;56860;51.144;16.954;2023-12-28T00:03:16;12.5;;;21.9;;
69636;SDS011;56860;51.144;16.954;2023-12-28T00:04:16;12.5;;;21.9;;
69636;SDS011;56860;51.144;16.954;2023-12-28T00:05:16;13.2;;;26.2;;
69636;SDS011;56860;51.144;16.954;2023-12-28T00:06:16;13.2;;;26.2;;
69636;SDS011;56860;51.144;16.954;2023-12-28T00:07:16;13.2;;;26.2;;
69636;SDS011;56860;51.144;16.954;2023-12-28T00:08:16;12.6;;;23.7;;
69636;SDS011;56860;51.144;16.954;2023-12-28T00:09:16;12.6;;;23.7;;
69636;SDS011;56860;51.144;16.954;2023-12-28T00:10:16;12.6;;;23.7;;
69636;SDS011;56860;51.144;16.954;2023-12-28T00:11:16;13.8;;;26.3;;
69636;SDS011;56860;51.144;16.954;2023-12-28T00:12:16;13.8;;;26.3;;
69636;SDS011;56860;51.144;16.954;2023-12-28T00:13:16;13.8;;;26.3;;
69636;SDS011;56860;51.144;16.954;2023-12-28T00:14:16;13.9;;;26.8;;
69636;SDS011;56860;51.144;16.954;2023-12-28T00:15:16;13.9;;;26.8;;
69636;SDS011;56860;51.144;16.954;2023-12-28T00:16:16;13.9;;;26.8;;
69636;SDS011;56860;51.144;16.954;2023-12-28T00:17:16;13.8;;;29.6;;
69636;SDS011;56860;51.144;16.954;2023-12-28T00:18:16;13.8;;;29.6;;
69636;SDS011;56860;51.144;16.954;2023-12-28T00:19:16;13.8;;;29.6;;
69636;SDS011;56860;51.144;16.954;2023-12-28T00:20:16;14.0;;;29.7;;
69636;SDS011;56860;51.144;16.954;2023-12-28T00:21:16;14.0;;;29.7;;
69636;SDS011;56860;51.144;16.954;2023-12-28T00:22:16;14.0;;;29.7;;
69636;SDS011;56860;51.144;16.954;2023-12-28T00:23:16;14.5;;;28.2;;
69636;SDS011;56860;51.144;16.954;2023-12-28T00:24:20;14.5;;;28.2;;
69636;SDS011;56860;51.144;16.954;2023-12-28T00:25:16;14.5;;;28.2;;
69636;SDS011;56860;51.144;16.954;2023-12-28T00:26:16;15.0;;;28.6;;
69636;SDS011;56860;51.144;16.954;2023-12-28T00:27:16;15.0;;;28.6;;
69636;SDS011;56860;51.144;16.954;2023-12-28T00:28:16;15.0;;;28.6;;
69636;SDS011;56860;51.144;16.954;2023-12-28T00:29:16;15.3;;;29.0;;
69636;SDS011;56860;51.144;16.954;2023-12-28T00:30:16;15.3;;;29.0;;
69636;SDS011;56860;51.144;16.954;2023-12-28T00:31:16;15.3;;;29.0;;
69636;SDS011;56860;51.144;16.954;2023-12-28T00:32:16;16.3;;;31.9;;
69636;SDS011;56860;51.144;16.954;2023-12-28T00:33:16;16.3;;;31.9;;
69636;SDS011;56860;51.144;16.954;2023-12-28T00:34:16;16.3;;;31.9;;
69636;SDS011;56860;51.144;16.954;2023-12-28T00:35:16;16.6;;;33.7;;
69636;SDS011;56860;51.144;16.954;2023-12-28T00:36:16;16.6;;;33.7;;
69636;SDS011;56860;51.144;16.954;2023-12-28T00:37:16;16.6;;;33.7;;
69636;SDS011;56860;51.144;16.954;2023-12-28T00:38:16;16.5;;;30.6;;
69636;SDS011;56860;51.144;16.954;2023-12-28T00:39:16;16.5;;;30.6;;
69636;SDS011;56860;51.144;16.954;2023-12-28T00:40:16;16.5;;;30.6;;
69636;SDS011;56860;51.144;16.954;2023-12-28T00:41:16;16.9;;;32.7;;
69636;SDS011;56860;51.144;16.954;2023-12-28T00:42:17;16.5;;;31.1;;
69636;SDS011;56860;51.144;16.954;2023-12-28T00:43:16;16.5;;;31.1;;
69636;SDS011;56860;51.144;16.954;2023-12-28T00:44:16;17.9;;;35.1;;
69636;SDS011;56860;51.144;16.954;2023-12-28T00:45:16;17.5;;;35.0;;
69636;SDS011;56860;51.144;16.954;2023-12-28T00:46:16;17.5;;;35.0;;
69636;SDS011;56860;51.144;16.954;2023-12-28T00:47:16;17.3;;;34.8;;
69636;SDS011;56860;51.144;16.954;2023-12-28T00:48:16;16.9;;;33.2;;
69636;SDS011;56860;51.144;16.954;2023-12-28T00:49:16;16.9;;;33.2;;
69636;SDS011;56860;51.144;16.954;2023-12-28T00:50:16;17.3;;;35.1;;
69636;SDS011;56860;51.144;16.954;2023-12-28T00:51:16;16.9;;;33.3;;
69636;SDS011;56860;51.144;16.954;2023-12-28T00:52:16;16.9;;;33.3;;
69636;SDS011;56860;51.144;16.954;2023-12-28T00:53:16;17.3;;;34.9;;
69636;SDS011;56860;51.144;16.954;2023-12-28T00:54:16;16.9;;;33.9;;
69636;SDS011;56860;51.144;16.954;2023-12-28T00:55:16;16.9;;;33.9;;
69636;SDS011;56860;51.144;16.954;2023-12-28T00:56:16;16.9;;;33.9;;
69636;SDS011;56860;51.144;16.954;2023-12-28T00:57:16;17.1;;;34.6;;
69636;SDS011;56860;51.144;16.954;2023-12-28T00:58:16;17.1;;;34.6;;
69636;SDS011;56860;51.144;16.954;2023-12-28T00:59:16;15.2;;;28.3;;
69636;SDS011;56860;51.144;16.954;2023-12-28T01:00:16;16.9;;;33.1;;
69636;SDS011;56860;51.144;16.954;2023-12-28T01:01:16;16.9;;;33.1;;
69636;SDS011;56860;51.144;16.954;2023-12-28T01:02:16;16.9;;;33.1;;
69636;SDS011;56860;51.144;16.954;2023-12-28T01:03:16;17.0;;;29.3;;
69636;SDS011;56860;51.144;16.954;2023-12-28T01:04:16;17.0;;;29.3;;
69636;SDS011;56860;51.144;16.954;2023-12-28T01:05:16;17.0;;;29.3;;
69636;SDS011;56860;51.144;16.954;2023-12-28T01:06:16;16.0;;;34.4;;
69636;SDS011;56860;51.144;16.954;2023-12-28T01:07:16;16.0;;;34.4;;
69636;SDS011;56860;51.144;16.954;2023-12-28T01:08:16;16.0;;;34.4;;
69636;SDS011;56860;51.144;16.954;2023-12-28T01:09:16;16.3;;;32.9;;
69636;SDS011;56860;51.144;16.954;2023-12-28T01:10:16;16.3;;;32.9;;
69636;SDS011;56860;51.144;16.954;2023-12-28T01:11:16;16.3;;;32.9;;
69636;SDS011;56860;51.144;16.954;2023-12-28T01:12:16;16.0;;;31.8;;
69636;SDS011;56860;51.144;16.954;2023-12-28T01:13:18;16.0;;;31.8;;
69636;SDS011;56860;51.144;16.954;2023-12-28T01:14:16;16.0;;;31.8;;
69636;SDS011;56860;51.144;16.954;2023-12-28T01:15:16;14.9;;;30.0;;
69636;SDS011;56860;51.144;16.954;2023-12-28T01:16:16;14.9;;;30.0;;
69636;SDS011;56860;51.144;16.954;2023-12-28T01:17:16;14.9;;;30.0;;
69636;SDS011;56860;51.144;16.954;2023-12-28T01:18:16;15.5;;;31.9;;
69636;SDS011;56860;51.144;16.954;2023-12-28T01:19:16;15.5;;;31.9;;
69636;SDS011;56860;51.144;16.954;2023-12-28T01:20:16;15.5;;;31.9;;
69636;SDS011;56860;51.144;16.954;2023-12-28T01:21:16;15.7;;;29.6;;
69636;SDS011;56860;51.144;16.954;2023-12-28T01:22:16;15.7;;;29.6;;
69636;SDS011;56860;51.144;16.954;2023-12-28T01:23:16;15.7;;;29.6;;
69636;SDS011;56860;51.144;16.954;2023-12-28T01:24:17;15.8;;;28.9;;
69636;SDS011;56860;51.144;16.954;2023-12-28T01:25:16;15.8;;;28.9;;
69636;SDS011;56860;51.144;16.954;2023-12-28T01:26:16;15.8;;;28.9;;
69636;SDS011;56860;51.144;16.954;2023-12-28T01:27:16;15.5;;;30.9;;
69636;SDS011;56860;51.144;16.954;2023-12-28T01:28:16;15.5;;;30.9;;
69636;SDS011;56860;51.144;16.954;2023-12-28T01:29:16;15.5;;;30.9;;
69636;SDS011;56860;51.144;16.954;2023-12-28T01:30:16;14.7;;;28.1;;
69636;SDS011;56860;51.144;16.954;2023-12-28T01:31:16;14.7;;;28.1;;
69636;SDS011;56860;51.144;16.954;2023-12-28T01:32:16;14.7;;;28.1;;
69636;SDS011;56860;51.144;16.954;2023-12-28T01:33:16;14.8;;;28.1;;
69636;SDS011;56860;51.144;16.954;2023-12-28T01:34:16;14.8;;;28.1;;
69636;SDS011;56860;51.144;16.954;2023-12-28T01:35:16;14.8;;;28.1;;
69636;SDS011;56860;51.144;16.954;2023-12-28T01:36:17;14.8;;;26.4;;
69636;SDS011;56860;51.144;16.954;2023-12-28T01:37:16;14.8;;;26.4;;
69636;SDS011;56860;51.144;16.954;2023-12-28T01:38:16;14.8;;;26.4;;
69636;SDS011;56860;51.144;16.954;2023-12-28T01:39:16;15.2;;;29.2;;
69636;SDS011;56860;51.144;16.954;2023-12-28T01:40:16;15.2;;;29.2;;
69636;SDS011;56860;51.144;16.954;2023-12-28T01:41:16;15.2;;;29.2;;
69636;SDS011;56860;51.144;16.954;2023-12-28T01:42:16;15.8;;;33.5;;
69636;SDS011;56860;51.144;16.954;2023-12-28T01:43:16;15.8;;;33.5;;
69636;SDS011;56860;51.144;16.954;2023-12-28T01:44:16;15.8;;;33.5;;
69636;SDS011;56860;51.144;16.954;2023-12-28T01:45:16;15.5;;;30.5;;
69636;SDS011;56860;51.144;16.954;2023-12-28T01:46:17;15.5;;;30.5;;
69636;SDS011;56860;51.144;16.954;2023-12-28T01:47:16;15.5;;;30.5;;
69636;SDS011;56860;51.144;16.954;2023-12-28T01:48:16;15.8;;;31.8;;
69636;SDS011;56860;51.144;16.954;2023-12-28T01:49:16;15.8;;;31.8;;
69636;SDS011;56860;51.144;16.954;2023-12-28T01:50:16;15.8;;;31.8;;
69636;SDS011;56860;51.144;16.954;2023-12-28T01:51:16;16.2;;;32.5;;
69636;SDS011;56860;51.144;16.954;2023-12-28T01:52:17;16.2;;;32.5;;
69636;SDS011;56860;51.144;16.954;2023-12-28T01:53:16;16.2;;;32.5;;
69636;SDS011;56860;51.144;16.954;2023-12-28T01:54:16;15.7;;;30.9;;
69636;SDS011;56860;51.144;16.954;2023-12-28T01:55:16;15.7;;;30.9;;
69636;SDS011;56860;51.144;16.954;2023-12-28T01:56:17;15.7;;;30.9;;
69636;SDS011;56860;51.144;16.954;2023-12-28T01:57:16;15.8;;;29.4;;
69636;SDS011;56860;51.144;16.954;2023-12-28T01:58:16;15.8;;;29.4;;
69636;SDS011;56860;51.144;16.954;2023-12-28T01:59:16;15.8;;;29.4;;
69636;SDS011;56860;51.144;16.954;2023-12-28T02:00:16;15.7;;;32.3;;
69636;SDS011;56860;51.144;16.954;2023-12-28T02:01:16;15.7;;;32.3;;
69636;SDS011;56860;51.144;16.954;2023-12-28T02:02:16;15.7;;;32.3;;
69636;SDS011;56860;51.144;16.954;2023-12-28T02:03:16;16.2;;;31.7;;
69636;SDS011;56860;51.144;16.954;2023-12-28T02:04:16;16.2;;;31.7;;
69636;SDS011;56860;51.144;16.954;2023-12-28T02:05:16;16.2;;;31.7;;
69636;SDS011;56860;51.144;16.954;2023-12-28T02:06:16;17.0;;;33.4;;
69636;SDS011;56860;51.144;16.954;2023-12-28T02:07:16;17.0;;;33.4;;
69636;SDS011;56860;51.144;16.954;2023-12-28T02:08:16;17.0;;;33.4;;
69636;SDS011;56860;51.144;16.954;2023-12-28T02:09:16;17.4;;;35.4;;
69636;SDS011;56860;51.144;16.954;2023-12-28T02:10:16;17.4;;;35.4;;
69636;SDS011;56860;51.144;16.954;2023-12-28T02:11:17;17.4;;;35.4;;
69636;SDS011;56860;51.144;16.954;2023-12-28T02:12:16;17.8;;;32.9;;
69636;SDS011;56860;51.144;16.954;2023-12-28T02:13:16;17.8;;;32.9;;
69636;SDS011;56860;51.144;16.954;2023-12-28T02:14:16;17.8;;;32.9;;
69636;SDS011;56860;51.144;16.954;2023-12-28T02:15:16;17.6;;;33.2;;
69636;SDS011;56860;51.144;16.954;2023-12-28T02:16:20;17.6;;;33.2;;
69636;SDS011;56860;51.144;16.954;2023-12-28T02:17:19;17.6;;;33.2;;
69636;SDS011;56860;51.144;16.954;2023-12-28T02:18:17;18.2;;;32.4;;
69636;SDS011;56860;51.144;16.954;2023-12-28T02:19:18;18.2;;;32.4;;
69636;SDS011;56860;51.144;16.954;2023-12-28T02:20:16;18.2;;;32.4;;
69636;SDS011;56860;51.144;16.954;2023-12-28T02:21:16;17.6;;;36.1;;
69636;SDS011;56860;51.144;16.954;2023-12-28T02:22:17;17.6;;;36.1;;
69636;SDS011;56860;51.144;16.954;2023-12-28T02:23:16;17.6;;;36.1;;
69636;SDS011;56860;51.144;16.954;2023-12-28T02:24:16;17.7;;;34.6;;
69636;SDS011;56860;51.144;16.954;2023-12-28T02:25:16;17.7;;;34.6;;
69636;SDS011;56860;51.144;16.954;2023-12-28T02:26:16;17.7;;;34.6;;
69636;SDS011;56860;51.144;16.954;2023-12-28T02:27:17;18.2;;;36.6;;
69636;SDS011;56860;51.144;16.954;2023-12-28T02:28:16;18.2;;;36.6;;
69636;SDS011;56860;51.144;16.954;2023-12-28T02:29:17;18.2;;;36.6;;
69636;SDS011;56860;51.144;16.954;2023-12-28T02:30:17;17.6;;;36.1;;
69636;SDS011;56860;51.144;16.954;2023-12-28T02:31:18;17.6;;;36.1;;
69636;SDS011;56860;51.144;16.954;2023-12-28T02:32:16;17.6;;;36.1;;
69636;SDS011;56860;51.144;16.954;2023-12-28T02:33:18;17.0;;;31.9;;
69636;SDS011;56860;51.144;16.954;2023-12-28T02:36:17;17.0;;;31.9;;
69636;SDS011;56860;51.144;16.954;2023-12-28T02:37:17;18.6;;;33.6;;
69636;SDS011;56860;51.144;16.954;2023-12-28T02:38:16;18.6;;;33.6;;
69636;SDS011;56860;51.144;16.954;2023-12-28T02:39:16;18.6;;;33.6;;
69636;SDS011;56860;51.144;16.954;2023-12-28T02:40:17;18.2;;;36.2;;
69636;SDS011;56860;51.144;16.954;2023-12-28T02:41:16;18.2;;;36.2;;
69636;SDS011;56860;51.144;16.954;2023-12-28T02:42:16;18.2;;;36.2;;
69636;SDS011;56860;51.144;16.954;2023-12-28T02:43:17;18.8;;;35.5;;
69636;SDS011;56860;51.144;16.954;2023-12-28T02:44:17;18.8;;;35.5;;
69636;SDS011;56860;51.144;16.954;2023-12-28T02:45:17;18.8;;;35.5;;
69636;SDS011;56860;51.144;16.954;2023-12-28T02:46:16;17.9;;;32.8;;
69636;SDS011;56860;51.144;16.954;2023-12-28T02:47:16;17.9;;;32.8;;
69636;SDS011;56860;51.144;16.954;2023-12-28T02:48:17;17.9;;;32.8;;
69636;SDS011;56860;51.144;16.954;2023-12-28T02:49:17;19.5;;;35.8;;
69636;SDS011;56860;51.144;16.954;2023-12-28T02:50:17;19.5;;;35.8;;
69636;SDS011;56860;51.144;16.954;2023-12-28T02:51:16;19.5;;;35.8;;
69636;SDS011;56860;51.144;16.954;2023-12-28T02:52:16;18.8;;;39.5;;
69636;SDS011;56860;51.144;16.954;2023-12-28T02:53:16;18.8;;;39.5;;
69636;SDS011;56860;51.144;16.954;2023-12-28T02:54:16;18.8;;;39.5;;
69636;SDS011;56860;51.144;16.954;2023-12-28T02:55:16;23.2;;;45.1;;
69636;SDS011;56860;51.144;16.954;2023-12-28T02:56:16;23.2;;;45.1;;
69636;SDS011;56860;51.144;16.954;2023-12-28T02:57:16;23.2;;;45.1;;
69636;SDS011;56860;51.144;16.954;2023-12-28T02:58:16;22.5;;;42.0;;
69636;SDS011;56860;51.144;16.954;2023-12-28T02:59:16;22.5;;;42.0;;
69636;SDS011;56860;51.144;16.954;2023-12-28T03:00:17;22.5;;;42.0;;
69636;SDS011;56860;51.144;16.954;2023-12-28T03:01:16;18.8;;;39.3;;
69636;SDS011;56860;51.144;16.954;2023-12-28T03:02:16;18.8;;;39.3;;
69636;SDS011;56860;51.144;16.954;2023-12-28T03:03:16;18.8;;;39.3;;
69636;SDS011;56860;51.144;16.954;2023-12-28T03:04:16;18.6;;;39.0;;
69636;SDS011;56860;51.144;16.954;2023-12-28T03:05:16;18.6;;;39.0;;
69636;SDS011;56860;51.144;16.954;2023-12-28T03:06:16;18.6;;;39.0;;
69636;SDS011;56860;51.144;16.954;2023-12-28T03:07:16;17.1;;;33.5;;
69636;SDS011;56860;51.144;16.954;2023-12-28T03:08:16;17.1;;;33.5;;
69636;SDS011;56860;51.144;16.954;2023-12-28T03:09:17;17.1;;;33.5;;
69636;SDS011;56860;51.144;16.954;2023-12-28T03:10:17;18.0;;;34.7;;
69636;SDS011;56860;51.144;16.954;2023-12-28T03:11:17;18.0;;;34.7;;
69636;SDS011;56860;51.144;16.954;2023-12-28T03:12:16;18.0;;;34.7;;
69636;SDS011;56860;51.144;16.954;2023-12-28T03:13:17;19.1;;;38.1;;
69636;SDS011;56860;51.144;16.954;2023-12-28T03:14:16;19.1;;;38.1;;
69636;SDS011;56860;51.144;16.954;2023-12-28T03:15:17;19.1;;;38.1;;
69636;SDS011;56860;51.144;16.954;2023-12-28T03:16:16;18.4;;;37.1;;
69636;SDS011;56860;51.144;16.954;2023-12-28T03:17:17;18.4;;;37.1;;
69636;SDS011;56860;51.144;16.954;2023-12-28T03:18:16;18.4;;;37.1;;
69636;SDS011;56860;51.144;16.954;2023-12-28T03:19:16;18.7;;;36.0;;
69636;SDS011;56860;51.144;16.954;2023-12-28T03:20:17;18.7;;;36.0;;
69636;SDS011;56860;51.144;16.954;2023-12-28T03:21:16;18.7;;;36.0;;
69636;SDS011;56860;51.144;16.954;2023-12-28T03:22:16;17.5;;;34.3;;
69636;SDS011;56860;51.144;16.954;2023-12-28T03:23:16;17.5;;;34.3;;
69636;SDS011;56860;51.144;16.954;2023-12-28T03:24:16;17.5;;;34.3;;
69636;SDS011;56860;51.144;16.954;2023-12-28T03:25:16;15.9;;;31.5;;
69636;SDS011;56860;51.144;16.954;2023-12-28T03:26:16;15.9;;;31.5;;
69636;SDS011;56860;51.144;16.954;2023-12-28T03:27:16;15.9;;;31.5;;
69636;SDS011;56860;51.144;16.954;2023-12-28T03:28:17;14.4;;;25.0;;
69636;SDS011;56860;51.144;16.954;2023-12-28T03:29:16;14.4;;;25.0;;
69636;SDS011;56860;51.144;16.954;2023-12-28T03:30:16;14.4;;;25.0;;
69636;SDS011;56860;51.144;16.954;2023-12-28T03:31:16;14.3;;;26.1;;
69636;SDS011;56860;51.144;16.954;2023-12-28T03:32:16;14.3;;;26.1;;
69636;SDS011;56860;51.144;16.954;2023-12-28T03:33:16;14.3;;;26.1;;
69636;SDS011;56860;51.144;16.954;2023-12-28T03:34:17;12.5;;;21.2;;
69636;SDS011;56860;51.144;16.954;2023-12-28T03:35:16;12.5;;;21.2;;
69636;SDS011;56860;51.144;16.954;2023-12-28T03:36:18;12.5;;;21.2;;
69636;SDS011;56860;51.144;16.954;2023-12-28T03:37:16;13.7;;;25.8;;
69636;SDS011;56860;51.144;16.954;2023-12-28T03:38:17;13.7;;;25.8;;
69636;SDS011;56860;51.144;16.954;2023-12-28T03:39:16;13.7;;;25.8;;
69636;SDS011;56860;51.144;16.954;2023-12-28T03:40:17;13.7;;;23.9;;
69636;SDS011;56860;51.144;16.954;2023-12-28T03:41:18;13.7;;;23.9;;
69636;SDS011;56860;51.144;16.954;2023-12-28T03:42:16;13.7;;;23.9;;
69636;SDS011;56860;51.144;16.954;2023-12-28T03:43:16;15.2;;;29.3;;
69636;SDS011;56860;51.144;16.954;2023-12-28T03:44:16;15.2;;;29.3;;
69636;SDS011;56860;51.144;16.954;2023-12-28T03:45:16;15.2;;;29.3;;
69636;SDS011;56860;51.144;16.954;2023-12-28T03:46:17;14.4;;;24.8;;
69636;SDS011;56860;51.144;16.954;2023-12-28T03:47:16;14.1;;;25.1;;
69636;SDS011;56860;51.144;16.954;2023-12-28T03:48:16;14.1;;;25.1;;
69636;SDS011;56860;51.144;16.954;2023-12-28T03:49:16;14.1;;;22.2;;
69636;SDS011;56860;51.144;16.954;2023-12-28T03:50:16;14.0;;;22.5;;
69636;SDS011;56860;51.144;16.954;2023-12-28T03:51:17;14.0;;;22.5;;
69636;SDS011;56860;51.144;16.954;2023-12-28T03:52:16;12.9;;;22.7;;
69636;SDS011;56860;51.144;16.954;2023-12-28T03:53:16;12.5;;;21.7;;
69636;SDS011;56860;51.144;16.954;2023-12-28T03:54:16;12.5;;;21.7;;
69636;SDS011;56860;51.144;16.954;2023-12-28T03:55:16;13.0;;;22.2;;
69636;SDS011;56860;51.144;16.954;2023-12-28T03:56:18;13.0;;;21.7;;
69636;SDS011;56860;51.144;16.954;2023-12-28T03:57:16;13.0;;;21.7;;
69636;SDS011;56860;51.144;16.954;2023-12-28T03:58:16;14.4;;;26.1;;
69636;SDS011;56860;51.144;16.954;2023-12-28T03:59:16;14.3;;;27.7;;
69636;SDS011;56860;51.144;16.954;2023-12-28T04:00:17;14.3;;;27.7;;
69636;SDS011;56860;51.144;16.954;2023-12-28T04:01:17;15.4;;;27.4;;
69636;SDS011;56860;51.144;16.954;2023-12-28T04:02:17;15.3;;;27.9;;
69636;SDS011;56860;51.144;16.954;2023-12-28T04:03:16;15.3;;;27.9;;
69636;SDS011;56860;51.144;16.954;2023-12-28T04:04:16;17.0;;;33.2;;
69636;SDS011;56860;51.144;16.954;2023-12-28T04:05:16;16.6;;;30.9;;
69636;SDS011;56860;51.144;16.954;2023-12-28T04:06:16;16.6;;;30.9;;
69636;SDS011;56860;51.144;16.954;2023-12-28T04:07:16;13.0;;;23.0;;
69636;SDS011;56860;51.144;16.954;2023-12-28T04:08:17;16.5;;;31.4;;
69636;SDS011;56860;51.144;16.954;2023-12-28T04:09:17;16.5;;;31.4;;
69636;SDS011;56860;51.144;16.954;2023-12-28T04:10:27;12.1;;;18.3;;
69636;SDS011;56860;51.144;16.954;2023-12-28T04:11:16;17.0;;;32.5;;
69636;SDS011;56860;51.144;16.954;2023-12-28T04:12:16;17.0;;;32.5;;
69636;SDS011;56860;51.144;16.954;2023-12-28T04:13:17;17.0;;;32.5;;
69636;SDS011;56860;51.144;16.954;2023-12-28T04:14:17;16.3;;;30.8;;
69636;SDS011;56860;51.144;16.954;2023-12-28T04:15:16;16.3;;;30.8;;
69636;SDS011;56860;51.144;16.954;2023-12-28T04:16:16;16.3;;;30.8;;
69636;SDS011;56860;51.144;16.954;2023-12-28T04:17:16;17.0;;;32.1;;
69636;SDS011;56860;51.144;16.954;2023-12-28T04:18:16;17.0;;;32.1;;
69636;SDS011;56860;51.144;16.954;2023-12-28T04:19:16;17.0;;;32.1;;
69636;SDS011;56860;51.144;16.954;2023-12-28T04:20:17;16.7;;;29.7;;
69636;SDS011;56860;51.144;16.954;2023-12-28T04:21:17;16.7;;;29.7;;
69636;SDS011;56860;51.144;16.954;2023-12-28T04:22:16;16.7;;;29.7;;
69636;SDS011;56860;51.144;16.954;2023-12-28T04:23:16;16.3;;;31.3;;
69636;SDS011;56860;51.144;16.954;2023-12-28T04:24:17;16.3;;;31.3;;
69636;SDS011;56860;51.144;16.954;2023-12-28T04:25:16;16.3;;;31.3;;
69636;SDS011;56860;51.144;16.954;2023-12-28T04:26:17;15.6;;;26.5;;
69636;SDS011;56860;51.144;16.954;2023-12-28T04:27:16;15.6;;;26.5;;
69636;SDS011;56860;51.144;16.954;2023-12-28T04:28:16;15.6;;;26.5;;
69636;SDS011;56860;51.144;16.954;2023-12-28T04:29:16;15.2;;;29.0;;
69636;SDS011;56860;51.144;16.954;2023-12-28T04:30:17;15.2;;;29.0;;
69636;SDS011;56860;51.144;16.954;2023-12-28T04:31:16;15.2;;;29.0;;
69636;SDS011;56860;51.144;16.954;2023-12-28T04:32:17;15.8;;;30.3;;
69636;SDS011;56860;51.144;16.954;2023-12-28T04:33:17;15.8;;;30.3;;
69636;SDS011;56860;51.144;16.954;2023-12-28T04:34:16;15.8;;;30.3;;
69636;SDS011;56860;51.144;16.954;2023-12-28T04:35:16;17.2;;;30.0;;
69636;SDS011;56860;51.144;16.954;2023-12-28T04:36:16;17.2;;;30.0;;
69636;SDS011;56860;51.144;16.954;2023-12-28T04:37:16;17.2;;;30.0;;
69636;SDS011;56860;51.144;16.954;2023-12-28T04:38:17;16.1;;;29.8;;
69636;SDS011;56860;51.144;16.954;2023-12-28T04:39:16;16.1;;;29.8;;
69636;SDS011;56860;51.144;16.954;2023-12-28T04:40:17;16.1;;;29.8;;
69636;SDS011;56860;51.144;16.954;2023-12-28T04:41:17;16.3;;;32.9;;
69636;SDS011;56860;51.144;16.954;2023-12-28T04:42:16;16.3;;;32.9;;
69636;SDS011;56860;51.144;16.954;2023-12-28T04:43:16;16.3;;;32.9;;
69636;SDS011;56860;51.144;16.954;2023-12-28T04:44:17;17.1;;;31.1;;
69636;SDS011;56860;51.144;16.954;2023-12-28T04:45:17;17.1;;;31.1;;
69636;SDS011;56860;51.144;16.954;2023-12-28T04:46:16;17.1;;;31.1;;
69636;SDS011;56860;51.144;16.954;2023-12-28T04:47:17;15.8;;;27.9;;
69636;SDS011;56860;51.144;16.954;2023-12-28T04:48:16;15.8;;;27.9;;
69636;SDS011;56860;51.144;16.954;2023-12-28T04:49:16;15.8;;;27.9;;
69636;SDS011;56860;51.144;16.954;2023-12-28T04:50:17;16.3;;;31.9;;
69636;SDS011;56860;51.144;16.954;2023-12-28T04:51:16;16.3;;;31.9;;
69636;SDS011;56860;51.144;16.954;2023-12-28T04:52:17;16.3;;;31.9;;
69636;SDS011;56860;51.144;16.954;2023-12-28T04:53:16;15.6;;;29.4;;
69636;SDS011;56860;51.144;16.954;2023-12-28T04:54:16;15.6;;;29.4;;
69636;SDS011;56860;51.144;16.954;2023-12-28T04:55:16;15.6;;;29.4;;
69636;SDS011;56860;51.144;16.954;2023-12-28T04:56:18;16.2;;;29.6;;
69636;SDS011;56860;51.144;16.954;2023-12-28T04:57:16;16.2;;;29.6;;
69636;SDS011;56860;51.144;16.954;2023-12-28T04:58:16;16.2;;;29.6;;
69636;SDS011;56860;51.144;16.954;2023-12-28T04:59:16;17.2;;;35.7;;
69636;SDS011;56860;51.144;16.954;2023-12-28T05:00:17;17.2;;;35.7;;
69636;SDS011;56860;51.144;16.954;2023-12-28T05:01:16;17.2;;;35.7;;
69636;SDS011;56860;51.144;16.954;2023-12-28T05:02:17;16.9;;;28.7;;
69636;SDS011;56860;51.144;16.954;2023-12-28T05:03:17;16.9;;;28.7;;
69636;SDS011;56860;51.144;16.954;2023-12-28T05:04:17;16.9;;;28.7;;
69636;SDS011;56860;51.144;16.954;2023-12-28T05:05:16;16.1;;;30.0;;
69636;SDS011;56860;51.144;16.954;2023-12-28T05:06:16;16.1;;;30.0;;
69636;SDS011;56860;51.144;16.954;2023-12-28T05:07:17;16.1;;;30.0;;
69636;SDS011;56860;51.144;16.954;2023-12-28T05:08:17;16.3;;;31.7;;
69636;SDS011;56860;51.144;16.954;2023-12-28T05:09:16;16.3;;;31.7;;
69636;SDS011;56860;51.144;16.954;2023-12-28T05:10:17;16.3;;;31.7;;
69636;SDS011;56860;51.144;16.954;2023-12-28T05:11:17;14.5;;;25.7;;
69636;SDS011;56860;51.144;16.954;2023-12-28T05:12:17;14.5;;;25.7;;
69636;SDS011;56860;51.144;16.954;2023-12-28T05:13:17;14.5;;;25.7;;
69636;SDS011;56860;51.144;16.954;2023-12-28T05:14:17;12.7;;;20.9;;
69636;SDS011;56860;51.144;16.954;2023-12-28T05:15:16;12.7;;;20.9;;
69636;SDS011;56860;51.144;16.954;2023-12-28T05:16:17;12.7;;;20.9;;
69636;SDS011;56860;51.144;16.954;2023-12-28T05:17:17;12.7;;;22.2;;
69636;SDS011;56860;51.144;16.954;2023-12-28T05:18:17;12.7;;;22.2;;
69636;SDS011;56860;51.144;16.954;2023-12-28T05:19:17;12.7;;;22.2;;
69636;SDS011;56860;51.144;16.954;2023-12-28T05:20:17;10.1;;;14.0;;
69636;SDS011;56860;51.144;16.954;2023-12-28T05:21:17;10.1;;;14.0;;
69636;SDS011;56860;51.144;16.954;2023-12-28T05:22:17;10.1;;;14.0;;
69636;SDS011;56860;51.144;16.954;2023-12-28T05:23:17;7.8;;;10.3;;
69636;SDS011;56860;51.144;16.954;2023-12-28T05:24:17;7.8;;;10.3;;
69636;SDS011;56860;51.144;16.954;2023-12-28T05:25:17;7.8;;;10.3;;
69636;SDS011;56860;51.144;16.954;2023-12-28T05:26:17;7.5;;;8.6;;
69636;SDS011;56860;51.144;16.954;2023-12-28T05:27:17;7.5;;;8.6;;
69636;SDS011;56860;51.144;16.954;2023-12-28T05:28:17;7.5;;;8.6;;
69636;SDS011;56860;51.144;16.954;2023-12-28T05:29:17;7.0;;;9.8;;
69636;SDS011;56860;51.144;16.954;2023-12-28T05:30:17;7.0;;;9.8;;
69636;SDS011;56860;51.144;16.954;2023-12-28T05:31:17;7.0;;;9.8;;
69636;SDS011;56860;51.144;16.954;2023-12-28T05:32:17;5.9;;;6.6;;
69636;SDS011;56860;51.144;16.954;2023-12-28T05:33:17;5.9;;;6.6;;
69636;SDS011;56860;51.144;16.954;2023-12-28T05:34:17;5.9;;;6.6;;
69636;SDS011;56860;51.144;16.954;2023-12-28T05:35:17;6.0;;;9.1;;
69636;SDS011;56860;51.144;16.954;2023-12-28T05:36:17;6.0;;;9.1;;
69636;SDS011;56860;51.144;16.954;2023-12-28T05:37:17;6.0;;;9.1;;
69636;SDS011;56860;51.144;16.954;2023-12-28T05:38:18;6.0;;;6.9;;
69636;SDS011;56860;51.144;16.954;2023-12-28T05:39:17;6.0;;;6.9;;
69636;SDS011;56860;51.144;16.954;2023-12-28T05:40:17;6.0;;;6.9;;
69636;SDS011;56860;51.144;16.954;2023-12-28T05:41:17;5.4;;;6.6;;
69636;SDS011;56860;51.144;16.954;2023-12-28T05:42:17;5.4;;;6.6;;
69636;SDS011;56860;51.144;16.954;2023-12-28T05:43:17;5.4;;;6.6;;
69636;SDS011;56860;51.144;16.954;2023-12-28T05:44:17;5.1;;;5.9;;
69636;SDS011;56860;51.144;16.954;2023-12-28T05:45:17;5.1;;;5.9;;
69636;SDS011;56860;51.144;16.954;2023-12-28T05:46:17;5.1;;;5.9;;
69636;SDS011;56860;51.144;16.954;2023-12-28T05:47:17;5.5;;;6.1;;
69636;SDS011;56860;51.144;16.954;2023-12-28T05:48:17;5.5;;;6.1;;
69636;SDS011;56860;51.144;16.954;2023-12-28T05:49:17;5.5;;;6.1;;
69636;SDS011;56860;51.144;16.954;2023-12-28T05:50:17;5.4;;;6.7;;
69636;SDS011;56860;51.144;16.954;2023-12-28T05:51:17;5.4;;;6.7;;
69636;SDS011;56860;51.144;16.954;2023-12-28T05:52:17;5.4;;;6.7;;
69636;SDS011;56860;51.144;16.954;2023-12-28T05:53:17;5.1;;;6.3;;
69636;SDS011;56860;51.144;16.954;2023-12-28T05:54:17;5.1;;;6.3;;
69636;SDS011;56860;51.144;16.954;2023-12-28T05:55:17;5.1;;;6.3;;
69636;SDS011;56860;51.144;16.954;2023-12-28T05:56:17;4.8;;;5.3;;
69636;SDS011;56860;51.144;16.954;2023-12-28T05:57:17;4.8;;;5.3;;
69636;SDS011;56860;51.144;16.954;2023-12-28T05:58:17;4.8;;;5.3;;
69636;SDS011;56860;51.144;16.954;2023-12-28T05:59:17;5.1;;;7.3;;